Time;durP1;ratioP1;P1;durP2;ratioP2;P2;SDS_P1;SDS_P2;PMS_P1;PMS_P2;Temp;Humidity;BMP_temperature;BMP_pressure;BME280_temperature;BME280_humidity;BME280_pressure;Samples;Min_cycle;Max_cycle;Signal;HPM_P1;HPM_P2
2021/09/19 00:02:06;;;;;;;3.05;2.00;;;7.60;99.90;;;;;;5007992;28;20065;-65
2021/09/19 00:04:33;;;;;;;1.83;1.65;;;7.60;99.90;;;;;;5007728;28;20073;-65
2021/09/19 00:07:00;;;;;;;2.30;2.03;;;7.60;99.90;;;;;;5007778;28;20073;-64
2021/09/19 00:09:27;;;;;;;3.28;3.08;;;7.60;99.90;;;;;;5007657;28;20053;-63
2021/09/19 00:11:54;;;;;;;4.75;2.28;;;7.60;99.90;;;;;;5006572;28;20081;-62
2021/09/19 00:14:20;;;;;;;2.28;2.03;;;7.60;99.90;;;;;;5007616;28;20157;-64
2021/09/19 00:16:48;;;;;;;9.32;2.72;;;7.60;99.90;;;;;;5007490;28;20108;-65
2021/09/19 00:19:16;;;;;;;4.82;2.78;;;7.50;99.90;;;;;;5007541;28;20141;-63
2021/09/19 00:21:43;;;;;;;3.47;1.98;;;7.50;99.90;;;;;;5006176;28;20068;-63
2021/09/19 00:24:09;;;;;;;2.20;2.00;;;7.50;99.90;;;;;;5007463;28;20072;-62
2021/09/19 00:26:37;;;;;;;4.00;2.05;;;7.50;99.90;;;;;;5007373;28;20330;-65
2021/09/19 00:29:04;;;;;;;3.38;1.70;;;7.50;99.90;;;;;;5007483;28;20085;-63
2021/09/19 00:31:31;;;;;;;2.38;2.17;;;7.50;99.90;;;;;;5006022;28;20066;-63
2021/09/19 00:33:58;;;;;;;2.42;1.65;;;7.50;99.90;;;;;;5007346;28;20041;-70
2021/09/19 00:36:25;;;;;;;2.75;2.55;;;7.60;99.90;;;;;;5007126;28;20065;-63
2021/09/19 00:38:52;;;;;;;4.43;2.45;;;7.60;99.90;;;;;;5007210;28;20070;-64
2021/09/19 00:41:19;;;;;;;3.30;3.03;;;7.60;99.90;;;;;;5007553;28;20074;-64
2021/09/19 00:43:46;;;;;;;2.92;2.60;;;7.70;99.90;;;;;;5005927;28;20124;-63
2021/09/19 00:46:13;;;;;;;2.40;2.15;;;7.70;99.90;;;;;;5007053;28;20103;-63
2021/09/19 00:48:40;;;;;;;3.53;2.58;;;7.80;99.90;;;;;;5007387;28;20049;-62
2021/09/19 00:51:06;;;;;;;2.67;2.47;;;7.80;99.90;;;;;;5007250;28;20046;-65
2021/09/19 00:53:37;;;;;;;2.45;2.25;;;7.80;99.90;;;;;;5005941;28;20061;-64
2021/09/19 00:56:05;;;;;;;;;;;7.90;99.90;;;;;;5007859;28;20125;-67
2021/09/19 00:58:33;;;;;;;2.15;1.95;;;7.90;99.90;;;;;;5007216;28;20319;-68
2021/09/19 01:01:01;;;;;;;2.83;2.53;;;7.90;99.90;;;;;;5007233;28;20069;-64
2021/09/19 01:03:29;;;;;;;2.95;2.50;;;7.90;99.90;;;;;;5005430;28;20623;-68
2021/09/19 01:05:56;;;;;;;3.15;2.65;;;8.00;99.90;;;;;;5007006;28;20046;-69
2021/09/19 01:08:23;;;;;;;7.18;2.17;;;8.00;99.90;;;;;;5007110;28;20053;-69
2021/09/19 01:10:51;;;;;;;2.88;1.98;;;8.00;99.90;;;;;;5007491;28;20352;-69
2021/09/19 01:13:18;;;;;;;2.88;2.38;;;8.00;99.90;;;;;;5007279;28;20096;-65
2021/09/19 01:15:45;;;;;;;3.65;2.22;;;8.10;99.90;;;;;;5005759;28;20049;-63
2021/09/19 01:18:16;;;;;;;4.18;2.47;;;8.10;99.90;;;;;;5007171;28;20069;-63
2021/09/19 01:20:44;;;;;;;4.45;2.67;;;8.20;99.90;;;;;;5006976;28;20459;-68
2021/09/19 01:23:12;;;;;;;3.13;2.45;;;8.20;99.90;;;;;;5006871;28;20108;-67
2021/09/19 01:25:41;;;;;;;3.08;2.10;;;8.20;99.90;;;;;;5005813;28;20081;-62
2021/09/19 01:28:08;;;;;;;3.83;2.45;;;8.20;99.90;;;;;;5007236;28;20130;-66
2021/09/19 01:30:36;;;;;;;3.30;2.95;;;8.30;99.90;;;;;;5007088;28;20050;-65
2021/09/19 01:33:04;;;;;;;2.80;2.60;;;8.30;99.90;;;;;;5006918;28;20042;-66
2021/09/19 01:35:31;;;;;;;4.28;2.47;;;8.30;99.90;;;;;;5005472;28;20084;-69
2021/09/19 01:37:58;;;;;;;3.13;2.10;;;8.30;99.90;;;;;;5006771;28;20515;-62
2021/09/19 01:40:26;;;;;;;4.55;2.22;;;8.30;99.90;;;;;;5006893;28;20058;-69
2021/09/19 01:42:54;;;;;;;4.70;2.72;;;8.40;99.90;;;;;;5006837;28;20088;-67
2021/09/19 01:45:21;;;;;;;4.38;2.55;;;8.40;99.90;;;;;;5007220;28;20046;-70
2021/09/19 01:47:49;;;;;;;3.92;2.70;;;8.40;99.90;;;;;;5005384;28;20116;-66
2021/09/19 01:50:18;;;;;;;7.88;2.72;;;8.50;99.90;;;;;;5006662;28;20081;-68
2021/09/19 01:52:44;;;;;;;2.35;2.15;;;8.50;99.90;;;;;;5006616;28;20129;-63
2021/09/19 01:55:12;;;;;;;3.83;3.08;;;8.50;99.90;;;;;;5006728;28;20045;-64
2021/09/19 01:57:39;;;;;;;3.30;3.00;;;8.60;99.90;;;;;;5006406;28;20069;-69
2021/09/19 02:00:07;;;;;;;6.05;3.00;;;8.60;99.90;;;;;;5009784;28;20100;-69
2021/09/19 02:02:35;;;;;;;3.08;2.35;;;8.60;99.90;;;;;;5009860;28;20061;-63
2021/09/19 02:05:05;;;;;;;2.65;2.45;;;8.60;99.90;;;;;;5008361;28;20073;-67
2021/09/19 02:07:35;;;;;;;3.13;2.47;;;8.60;99.90;;;;;;5008750;28;20046;-66
2021/09/19 02:10:05;;;;;;;3.10;2.72;;;8.60;99.90;;;;;;5009939;28;20042;-69
2021/09/19 02:12:34;;;;;;;2.92;2.72;;;8.60;99.90;;;;;;5009910;28;20077;-69
2021/09/19 02:15:02;;;;;;;4.45;2.85;;;8.50;99.90;;;;;;5009387;28;20076;-64
2021/09/19 02:17:29;;;;;;;4.07;3.22;;;8.50;99.90;;;;;;5023445;28;20050;-66
2021/09/19 02:19:56;;;;;;;4.40;3.55;;;8.50;99.90;;;;;;5009424;28;20144;-69
2021/09/19 02:22:23;;;;;;;4.65;3.60;;;8.40;99.90;;;;;;5009724;28;20133;-68
2021/09/19 02:24:50;;;;;;;3.75;3.42;;;8.40;99.90;;;;;;5009631;28;20046;-68
2021/09/19 02:27:20;;;;;;;5.88;3.22;;;8.30;99.90;;;;;;5009679;28;20065;-66
2021/09/19 02:29:48;;;;;;;3.85;3.40;;;8.30;99.90;;;;;;5008445;28;20088;-68
2021/09/19 02:32:16;;;;;;;3.15;2.95;;;8.20;99.90;;;;;;5009523;28;20062;-66
2021/09/19 02:34:43;;;;;;;6.65;3.13;;;8.20;99.90;;;;;;5009588;28;20049;-62
2021/09/19 02:37:10;;;;;;;3.00;2.67;;;8.10;99.90;;;;;;5009659;28;20391;-63
2021/09/19 02:39:37;;;;;;;3.95;3.35;;;8.10;99.90;;;;;;5007870;28;20126;-66
2021/09/19 02:42:05;;;;;;;2.97;2.70;;;8.10;99.90;;;;;;5009302;28;20034;-66
2021/09/19 02:44:32;;;;;;;6.97;4.97;;;8.10;99.90;;;;;;5009212;28;20123;-67
2021/09/19 02:46:59;;;;;;;3.33;3.13;;;8.00;99.90;;;;;;5009254;28;20404;-68
2021/09/19 02:49:26;;;;;;;3.13;2.65;;;7.90;99.90;;;;;;5009409;28;20105;-66
2021/09/19 02:51:53;;;;;;;4.22;3.67;;;7.90;99.90;;;;;;5008016;28;20041;-67
2021/09/19 02:54:20;;;;;;;3.63;2.85;;;7.90;99.90;;;;;;5009107;28;20121;-68
2021/09/19 02:56:47;;;;;;;5.28;3.13;;;7.80;99.90;;;;;;5009227;28;20076;-68
2021/09/19 02:59:14;;;;;;;3.30;2.47;;;7.80;99.90;;;;;;5009328;28;20050;-66
2021/09/19 03:01:40;;;;;;;4.47;3.15;;;7.70;99.90;;;;;;5007557;28;20069;-69
2021/09/19 03:04:08;;;;;;;3.97;2.72;;;7.70;99.90;;;;;;5008826;28;20050;-69
2021/09/19 03:06:35;;;;;;;4.35;3.67;;;7.60;99.90;;;;;;5008988;28;20159;-69
2021/09/19 03:09:02;;;;;;;3.92;3.33;;;7.60;99.90;;;;;;5007821;28;20150;-68
2021/09/19 03:11:28;;;;;;;5.22;3.55;;;7.60;99.90;;;;;;5007381;28;20085;-69
2021/09/19 03:13:55;;;;;;;4.45;3.67;;;7.60;99.90;;;;;;5008758;28;20034;-68
2021/09/19 03:16:23;;;;;;;5.70;2.38;;;7.60;99.90;;;;;;5008760;28;20137;-68
2021/09/19 03:18:50;;;;;;;3.30;3.00;;;7.50;99.90;;;;;;5009101;28;20128;-63
2021/09/19 03:21:17;;;;;;;4.25;3.25;;;7.50;99.90;;;;;;5008583;28;20072;-64
2021/09/19 03:23:44;;;;;;;6.68;2.90;;;7.50;99.90;;;;;;5007319;28;20065;-64
2021/09/19 03:26:11;;;;;;;5.00;3.40;;;7.50;99.90;;;;;;5008504;28;20092;-67
2021/09/19 03:28:38;;;;;;;3.72;3.42;;;7.40;99.90;;;;;;5008525;28;20042;-65
2021/09/19 03:31:05;;;;;;;4.10;3.20;;;7.50;99.90;;;;;;5008505;28;20054;-67
2021/09/19 03:33:31;;;;;;;5.07;3.78;;;7.40;99.90;;;;;;5007289;28;20050;-63
2021/09/19 03:35:58;;;;;;;3.25;2.95;;;7.40;99.90;;;;;;5008456;28;20042;-66
2021/09/19 03:38:25;;;;;;;5.05;3.05;;;7.40;99.90;;;;;;5008403;28;20125;-68
2021/09/19 03:40:52;;;;;;;2.95;2.67;;;7.30;99.90;;;;;;5008326;28;20137;-66
2021/09/19 03:43:19;;;;;;;3.63;2.88;;;7.30;99.90;;;;;;5008369;28;20128;-66
2021/09/19 03:45:46;;;;;;;6.97;3.65;;;7.30;99.90;;;;;;5006905;28;20042;-66
2021/09/19 03:48:13;;;;;;;4.13;3.70;;;7.30;99.90;;;;;;5008427;28;20100;-69
2021/09/19 03:50:40;;;;;;;3.72;3.15;;;7.30;99.90;;;;;;5008575;28;20124;-68
2021/09/19 03:53:07;;;;;;;4.65;3.63;;;7.30;99.90;;;;;;5008380;28;20054;-66
2021/09/19 03:55:34;;;;;;;4.32;3.53;;;7.40;99.90;;;;;;5006954;28;20049;-66
2021/09/19 03:58:01;;;;;;;6.00;3.33;;;7.40;99.90;;;;;;5023648;28;20065;-67
2021/09/19 04:00:28;;;;;;;4.22;3.85;;;7.40;99.90;;;;;;5008360;28;20549;-66
2021/09/19 04:02:56;;;;;;;5.30;3.95;;;7.40;99.90;;;;;;5007502;28;20078;-64
2021/09/19 04:05:23;;;;;;;7.78;4.90;;;7.40;99.90;;;;;;5007941;28;20041;-64
2021/09/19 04:07:50;;;;;;;4.78;3.22;;;7.40;99.90;;;;;;5006903;28;20046;-66
2021/09/19 04:10:17;;;;;;;3.63;3.33;;;7.40;99.90;;;;;;5007642;28;20046;-67
2021/09/19 04:12:44;;;;;;;3.90;3.17;;;7.40;99.90;;;;;;5007851;28;20046;-66
2021/09/19 04:15:12;;;;;;;3.97;3.65;;;7.50;99.90;;;;;;5007799;28;20150;-64
2021/09/19 04:17:39;;;;;;;5.38;3.70;;;7.50;99.90;;;;;;5006233;28;20145;-68
2021/09/19 04:20:07;;;;;;;4.25;3.50;;;7.50;99.90;;;;;;5007353;28;20046;-66
2021/09/19 04:22:34;;;;;;;6.07;3.78;;;7.50;99.90;;;;;;5007717;28;20096;-66
2021/09/19 04:25:01;;;;;;;4.32;3.40;;;7.50;99.90;;;;;;5007817;28;20134;-66
2021/09/19 04:27:28;;;;;;;4.13;3.00;;;7.50;99.90;;;;;;5006839;28;20042;-69
2021/09/19 04:29:55;;;;;;;3.42;3.13;;;7.50;99.90;;;;;;5007220;28;20083;-68
2021/09/19 04:32:22;;;;;;;5.97;3.38;;;7.50;99.90;;;;;;5007440;28;20046;-69
2021/09/19 04:34:49;;;;;;;3.80;3.30;;;7.50;99.90;;;;;;5007566;28;20377;-66
2021/09/19 04:37:17;;;;;;;4.20;3.15;;;7.50;99.90;;;;;;5007511;28;20088;-66
2021/09/19 04:39:45;;;;;;;4.05;3.22;;;7.50;99.90;;;;;;5005935;28;20041;-64
2021/09/19 04:42:13;;;;;;;4.63;2.90;;;7.60;99.90;;;;;;5007403;28;20042;-68
2021/09/19 04:44:42;;;;;;;4.78;3.78;;;7.60;99.90;;;;;;5007180;28;20058;-66
2021/09/19 04:47:09;;;;;;;3.53;3.22;;;7.60;99.90;;;;;;5007233;28;20124;-62
2021/09/19 04:49:36;;;;;;;3.00;2.80;;;7.60;99.90;;;;;;5006018;28;20138;-65
2021/09/19 04:52:03;;;;;;;5.45;3.60;;;7.70;99.90;;;;;;5006923;28;20088;-63
2021/09/19 04:54:30;;;;;;;3.92;3.53;;;7.70;99.90;;;;;;5007065;28;20204;-69
2021/09/19 04:56:58;;;;;;;3.88;3.47;;;7.70;99.90;;;;;;5007285;28;20049;-69
2021/09/19 04:59:25;;;;;;;3.13;2.92;;;7.90;99.90;;;;;;5007130;28;20081;-64
2021/09/19 05:01:52;;;;;;;3.47;2.53;;;7.90;99.90;;;;;;5005779;28;20448;-66
2021/09/19 05:04:19;;;;;;;7.30;4.35;;;8.00;99.90;;;;;;5006692;28;20053;-69
2021/09/19 05:06:46;;;;;;;3.33;2.83;;;8.00;99.90;;;;;;5006087;28;20418;-68
2021/09/19 05:09:13;;;;;;;2.97;2.50;;;8.00;99.90;;;;;;5007112;28;20065;-64
2021/09/19 05:11:40;;;;;;;3.42;3.13;;;8.10;99.90;;;;;;5005884;28;20059;-66
2021/09/19 05:14:07;;;;;;;4.68;3.15;;;8.10;99.90;;;;;;5007119;28;20104;-66
2021/09/19 05:16:34;;;;;;;3.47;2.90;;;8.10;99.90;;;;;;5007016;28;20062;-66
2021/09/19 05:19:00;;;;;;;3.03;2.28;;;8.10;99.90;;;;;;5007072;28;20448;-63
2021/09/19 05:21:27;;;;;;;2.92;2.42;;;8.10;99.90;;;;;;5007041;28;20594;-65
2021/09/19 05:23:54;;;;;;;3.30;2.88;;;8.00;99.90;;;;;;5005793;28;20084;-69
2021/09/19 05:26:24;;;;;;;2.55;2.25;;;8.00;99.90;;;;;;5007064;28;20077;-66
2021/09/19 05:28:52;;;;;;;5.25;2.97;;;8.10;99.90;;;;;;5006957;28;20092;-64
2021/09/19 05:31:19;;;;;;;2.88;2.63;;;8.10;99.90;;;;;;5007046;28;20412;-66
2021/09/19 05:33:46;;;;;;;2.40;2.17;;;8.10;99.90;;;;;;5008677;28;20145;-68
2021/09/19 05:36:14;;;;;;;3.97;2.85;;;8.10;99.90;;;;;;5010637;28;20515;-69
2021/09/19 05:38:41;;;;;;;2.75;2.47;;;8.20;99.90;;;;;;5010766;28;20057;-63
2021/09/19 05:41:08;;;;;;;3.83;2.90;;;8.20;99.90;;;;;;5010588;28;20042;-63
2021/09/19 05:43:35;;;;;;;2.70;2.50;;;8.30;99.90;;;;;;5008960;28;20500;-64
2021/09/19 05:46:02;;;;;;;2.00;1.90;;;8.30;99.90;;;;;;5010601;28;20542;-64
2021/09/19 05:48:29;;;;;;;2.92;2.72;;;8.40;99.90;;;;;;5010482;28;20404;-64
2021/09/19 05:50:56;;;;;;;2.90;2.35;;;8.40;99.90;;;;;;5010530;28;20359;-68
2021/09/19 05:53:23;;;;;;;2.45;2.08;;;8.40;99.90;;;;;;5010361;28;20172;-68
2021/09/19 05:55:50;;;;;;;2.72;2.45;;;8.50;99.90;;;;;;5009095;28;20076;-68
2021/09/19 05:58:17;;;;;;;3.60;3.08;;;8.60;99.90;;;;;;5010214;28;20133;-68
2021/09/19 06:00:44;;;;;;;3.65;2.85;;;8.60;99.90;;;;;;5010111;28;20065;-69
2021/09/19 06:03:11;;;;;;;4.85;3.58;;;8.60;99.90;;;;;;5009993;28;20068;-68
2021/09/19 06:05:38;;;;;;;3.58;2.53;;;8.70;99.90;;;;;;5008995;28;20491;-66
2021/09/19 06:08:05;;;;;;;3.15;2.78;;;8.70;99.90;;;;;;5010627;28;20517;-67
2021/09/19 06:10:32;;;;;;;2.72;2.40;;;8.70;99.90;;;;;;5010119;28;20457;-66
2021/09/19 06:12:59;;;;;;;4.47;2.55;;;8.80;99.90;;;;;;5010306;28;20447;-68
2021/09/19 06:15:26;;;;;;;3.03;2.72;;;8.90;99.90;;;;;;5010485;28;20443;-66
2021/09/19 06:17:53;;;;;;;3.53;3.22;;;8.90;99.90;;;;;;5008238;28;20042;-69
2021/09/19 06:20:20;;;;;;;3.15;2.40;;;8.90;99.90;;;;;;5009856;28;20132;-69
2021/09/19 06:22:47;;;;;;;3.33;2.45;;;9.00;99.90;;;;;;5009937;28;20082;-68
2021/09/19 06:25:13;;;;;;;3.13;2.70;;;9.00;99.90;;;;;;5009819;28;20069;-68
2021/09/19 06:27:41;;;;;;;5.68;3.17;;;9.10;99.90;;;;;;5008659;28;20046;-69
2021/09/19 06:30:09;;;;;;;3.72;2.35;;;9.10;99.90;;;;;;5009890;28;20085;-68
2021/09/19 06:32:36;;;;;;;2.05;1.83;;;9.10;99.90;;;;;;5010051;28;20121;-63
2021/09/19 06:35:05;;;;;;;4.57;2.72;;;9.20;99.90;;;;;;5009871;28;20046;-68
2021/09/19 06:37:32;;;;;;;2.92;2.67;;;9.20;99.90;;;;;;5008098;28;20065;-65
2021/09/19 06:39:59;;;;;;;3.65;2.95;;;9.30;99.90;;;;;;5009145;28;20080;-64
2021/09/19 06:42:26;;;;;;;2.60;2.30;;;9.30;99.90;;;;;;5009171;28;20069;-65
2021/09/19 06:44:53;;;;;;;4.90;3.15;;;9.30;99.90;;;;;;5008913;28;20504;-64
2021/09/19 06:47:20;;;;;;;2.85;2.28;;;9.30;99.90;;;;;;5009246;28;20515;-64
2021/09/19 06:49:47;;;;;;;2.78;2.58;;;9.40;99.90;;;;;;5007851;28;20528;-66
2021/09/19 06:52:14;;;;;;;5.65;3.85;;;9.40;99.90;;;;;;5008836;28;20057;-67
2021/09/19 06:54:42;;;;;;;3.80;3.35;;;9.50;99.90;;;;;;5008921;28;20046;-67
2021/09/19 06:57:10;;;;;;;4.07;3.22;;;9.50;99.90;;;;;;5009156;28;20054;-65
2021/09/19 06:59:38;;;;;;;4.35;3.95;;;9.60;99.90;;;;;;5007694;28;20129;-67
2021/09/19 07:02:05;;;;;;;3.47;3.20;;;9.60;99.90;;;;;;5008875;28;20081;-66
2021/09/19 07:04:32;;;;;;;3.92;3.30;;;9.60;99.90;;;;;;5008999;28;20050;-66
2021/09/19 07:07:00;;;;;;;4.57;3.15;;;9.70;99.90;;;;;;5009006;28;20096;-64
2021/09/19 07:09:27;;;;;;;3.70;3.35;;;9.70;99.90;;;;;;5009090;28;20403;-67
2021/09/19 07:11:54;;;;;;;4.63;3.53;;;9.80;99.90;;;;;;5007751;28;20088;-66
2021/09/19 07:14:21;;;;;;;4.88;3.13;;;9.80;99.90;;;;;;5008971;28;20049;-66
2021/09/19 07:16:48;;;;;;;4.43;4.03;;;9.80;99.90;;;;;;5008783;28;20053;-67
2021/09/19 07:19:15;;;;;;;6.10;3.60;;;9.90;99.90;;;;;;5009007;28;20399;-69
2021/09/19 07:21:42;;;;;;;4.15;3.75;;;9.90;99.90;;;;;;5007627;28;20405;-68
2021/09/19 07:24:08;;;;;;;4.68;4.28;;;10.00;99.90;;;;;;5009128;28;20076;-66
2021/09/19 07:26:35;;;;;;;3.97;3.58;;;10.20;99.90;;;;;;5008668;28;20077;-67
2021/09/19 07:29:03;;;;;;;5.40;3.90;;;10.30;99.90;;;;;;5008991;28;20049;-70
2021/09/19 07:31:30;;;;;;;4.03;3.63;;;10.40;99.90;;;;;;5007473;28;20136;-69
2021/09/19 07:33:57;;;;;;;3.72;3.40;;;10.50;99.90;;;;;;5008518;28;20042;-65
2021/09/19 07:36:27;;;;;;;3.40;3.05;;;10.60;99.90;;;;;;5008860;28;20426;-69
2021/09/19 07:38:54;;;;;;;6.85;4.18;;;10.50;99.90;;;;;;5008926;28;20096;-67
2021/09/19 07:41:21;;;;;;;3.67;3.10;;;10.40;99.90;;;;;;5008649;28;20129;-70
2021/09/19 07:43:48;;;;;;;3.38;3.05;;;10.40;99.90;;;;;;5007253;28;20124;-70
2021/09/19 07:46:17;;;;;;;4.20;3.30;;;10.50;99.90;;;;;;5006883;28;20076;-69
2021/09/19 07:48:45;;;;;;;5.47;4.10;;;10.40;99.90;;;;;;5008416;28;20041;-63
2021/09/19 07:51:12;;;;;;;16.08;3.58;;;10.50;99.90;;;;;;5008621;28;20101;-65
2021/09/19 07:53:39;;;;;;;3.97;3.38;;;10.50;99.90;;;;;;5007056;28;20050;-66
2021/09/19 07:56:06;;;;;;;4.55;3.47;;;10.40;99.90;;;;;;5007567;28;20042;-66
2021/09/19 07:58:33;;;;;;;4.30;3.88;;;10.50;99.90;;;;;;5008392;28;20488;-68
2021/09/19 08:01:00;;;;;;;3.78;3.38;;;10.50;99.90;;;;;;5008191;28;20100;-69
2021/09/19 08:03:27;;;;;;;4.38;3.97;;;10.40;99.90;;;;;;5007881;28;20080;-67
2021/09/19 08:05:55;;;;;;;6.20;3.50;;;10.40;99.90;;;;;;5006964;28;20049;-68
2021/09/19 08:08:21;;;;;;;6.25;4.13;;;10.40;99.90;;;;;;5008036;28;20041;-68
2021/09/19 08:10:48;;;;;;;14.10;4.65;;;10.40;99.90;;;;;;5008208;28;20062;-62
2021/09/19 08:13:15;;;;;;;3.95;3.55;;;10.40;99.90;;;;;;5008186;28;20088;-65
2021/09/19 08:15:42;;;;;;;5.53;3.53;;;10.40;99.90;;;;;;5006725;28;20088;-66
2021/09/19 08:18:09;;;;;;;7.40;3.55;;;10.40;99.90;;;;;;5008121;28;20095;-70
2021/09/19 08:20:36;;;;;;;6.13;4.30;;;10.30;99.90;;;;;;5007772;28;20132;-69
2021/09/19 08:23:03;;;;;;;3.90;3.42;;;10.30;99.90;;;;;;5007977;28;20074;-66
2021/09/19 08:25:30;;;;;;;3.83;3.50;;;10.40;99.90;;;;;;5006561;28;20073;-67
2021/09/19 08:27:57;;;;;;;5.03;4.53;;;10.40;99.90;;;;;;5007770;28;20606;-63
2021/09/19 08:30:24;;;;;;;4.35;3.95;;;10.40;99.90;;;;;;5007722;28;20120;-65
2021/09/19 08:32:51;;;;;;;3.35;2.92;;;10.40;99.90;;;;;;5007898;28;20124;-64
2021/09/19 08:35:18;;;;;;;3.95;3.10;;;10.50;99.90;;;;;;5008023;28;20048;-65
2021/09/19 08:37:45;;;;;;;4.15;3.35;;;10.50;99.90;;;;;;5006502;28;20060;-62
2021/09/19 08:40:13;;;;;;;6.75;5.40;;;10.50;99.90;;;;;;5007521;28;20084;-67
2021/09/19 08:42:41;;;;;;;3.50;3.20;;;10.60;99.90;;;;;;5007737;28;20057;-65
2021/09/19 08:45:10;;;;;;;4.20;3.75;;;10.60;99.90;;;;;;5007685;28;20140;-67
2021/09/19 08:47:37;;;;;;;5.55;4.15;;;10.70;99.90;;;;;;5006377;28;20054;-63
2021/09/19 08:50:07;;;;;;;3.63;3.30;;;10.70;99.90;;;;;;5007578;28;20056;-65
2021/09/19 08:52:34;;;;;;;3.58;2.53;;;10.80;99.90;;;;;;5007548;28;20053;-63
2021/09/19 08:55:01;;;;;;;3.55;2.95;;;10.90;99.90;;;;;;5007383;28;20075;-69
2021/09/19 08:57:28;;;;;;;5.80;3.33;;;11.00;99.90;;;;;;5006690;28;20049;-66
2021/09/19 09:00:03;;;;;;;3.65;3.35;;;11.10;99.90;;;;;;5007038;28;20041;-65
2021/09/19 09:02:43;;;;;;;4.80;2.78;;;11.10;99.90;;;;;;5007189;28;20074;-64
2021/09/19 09:05:25;;;;;;;3.63;3.33;;;11.10;99.90;;;;;;5007651;28;20125;-68
2021/09/19 09:07:54;;;;;;;4.55;2.83;;;11.10;99.90;;;;;;5009362;28;20124;-67
2021/09/19 09:10:36;;;;;;;3.45;3.15;;;11.20;99.90;;;;;;5011621;28;20049;-62
2021/09/19 09:13:12;;;;;;;4.00;2.88;;;11.20;99.90;;;;;;5011487;28;20108;-65
2021/09/19 09:15:41;;;;;;;4.38;2.95;;;11.20;99.90;;;;;;5009962;28;20136;-67
2021/09/19 09:18:12;;;;;;;3.30;3.00;;;11.20;99.90;;;;;;5011096;28;20121;-69
2021/09/19 09:20:54;;;;;;;6.15;4.10;;;11.30;99.90;;;;;;5011255;28;20054;-65
2021/09/19 09:23:27;;;;;;;3.92;3.28;;;11.30;99.90;;;;;;5011067;28;20104;-64
2021/09/19 09:26:17;;;;;;;3.42;3.03;;;11.30;99.90;;;;;;5009836;28;20044;-64
2021/09/19 09:28:52;;;;;;;3.92;3.53;;;11.40;99.90;;;;;;5026262;28;20053;-69
2021/09/19 09:31:24;;;;;;;3.58;2.92;;;11.50;99.90;;;;;;5011064;28;20139;-69
2021/09/19 09:34:01;;;;;;;4.38;3.50;;;11.50;99.90;;;;;;5009372;28;20041;-68
2021/09/19 09:36:31;;;;;;;4.45;3.58;;;11.50;99.90;;;;;;5011042;28;20496;-69
2021/09/19 09:38:58;;;;;;;5.93;4.35;;;11.50;99.90;;;;;;5011279;28;20066;-69
2021/09/19 09:41:41;;;;;;;4.07;3.33;;;11.60;99.90;;;;;;5010972;28;20049;-67
2021/09/19 09:44:32;;;;;;;3.00;2.75;;;11.60;99.90;;;;;;5024759;28;20088;-64
2021/09/19 09:47:02;;;;;;;2.80;2.60;;;11.50;99.90;;;;;;5010488;28;20120;-66
2021/09/19 09:49:46;;;;;;;3.10;2.63;;;11.60;99.90;;;;;;5009406;28;20059;-67
2021/09/19 09:52:18;;;;;;;3.97;2.80;;;11.60;99.90;;;;;;5010422;28;20081;-70
2021/09/19 09:54:56;;;;;;;2.92;2.70;;;11.60;99.90;;;;;;5010556;28;20481;-69
2021/09/19 09:57:35;;;;;;;3.20;2.60;;;11.60;99.90;;;;;;5010707;28;20091;-63
2021/09/19 10:00:14;;;;;;;5.25;3.28;;;11.70;99.90;;;;;;5009156;28;20096;-62
2021/09/19 10:02:43;;;;;;;5.53;3.35;;;11.80;99.90;;;;;;5010130;28;20445;-64
2021/09/19 10:05:13;;;;;;;3.92;2.95;;;11.90;99.90;;;;;;5010181;28;20058;-69
2021/09/19 10:07:42;;;;;;;7.88;3.15;;;11.90;99.90;;;;;;5008784;28;20073;-66
2021/09/19 10:10:15;;;;;;;3.78;3.08;;;11.90;99.90;;;;;;5010294;28;20435;-68
2021/09/19 10:12:43;;;;;;;5.38;4.05;;;11.90;99.90;;;;;;5010363;28;20046;-69
2021/09/19 10:15:10;;;;;;;5.55;3.22;;;11.90;99.90;;;;;;5010154;28;20073;-65
2021/09/19 10:17:37;;;;;;;3.17;2.88;;;11.90;99.90;;;;;;5008310;28;20209;-69
2021/09/19 10:20:17;;;;;;;4.93;3.53;;;11.90;99.90;;;;;;5009657;28;20049;-63
2021/09/19 10:22:54;;;;;;;3.83;2.83;;;11.90;99.90;;;;;;5009793;28;20046;-67
2021/09/19 10:25:22;;;;;;;3.00;2.70;;;11.80;99.90;;;;;;5010093;28;20109;-69
2021/09/19 10:27:49;;;;;;;5.00;2.83;;;11.80;99.90;;;;;;5008479;28;20077;-65
2021/09/19 10:30:18;;;;;;;3.85;3.22;;;11.80;99.90;;;;;;5009862;28;20463;-69
2021/09/19 10:32:47;;;;;;;4.40;3.15;;;11.90;99.90;;;;;;5009955;28;20425;-68
2021/09/19 10:35:17;;;;;;;4.50;3.47;;;11.90;99.90;;;;;;5010133;28;20081;-67
2021/09/19 10:38:04;;;;;;;3.65;3.05;;;12.00;99.90;;;;;;5008319;28;20066;-63
2021/09/19 10:40:40;;;;;;;3.88;3.05;;;12.00;99.90;;;;;;5009500;28;20136;-67
2021/09/19 10:43:15;;;;;;;3.30;2.92;;;12.00;99.90;;;;;;5009193;28;20045;-64
2021/09/19 10:45:45;;;;;;;3.83;3.30;;;12.00;99.90;;;;;;5007751;28;20152;-68
2021/09/19 10:48:16;;;;;;;3.00;2.33;;;12.00;99.90;;;;;;5009412;28;20101;-70
2021/09/19 10:50:47;;;;;;;3.00;2.47;;;12.00;99.90;;;;;;5009346;28;20046;-65
2021/09/19 10:53:23;;;;;;;3.00;2.70;;;12.00;99.90;;;;;;5009135;28;20104;-67
2021/09/19 10:55:57;;;;;;;3.53;2.58;;;12.10;99.90;;;;;;5007672;28;20054;-66
2021/09/19 10:58:27;;;;;;;2.75;2.20;;;12.20;99.90;;;;;;5009216;28;20571;-66
2021/09/19 11:01:07;;;;;;;7.53;4.28;;;12.40;99.90;;;;;;5009170;28;20511;-65
2021/09/19 11:03:34;;;;;;;3.50;2.67;;;12.60;99.90;;;;;;5007298;28;20125;-67
2021/09/19 11:06:02;;;;;;;3.33;2.72;;;12.80;99.90;;;;;;5009618;28;20076;-70
2021/09/19 11:08:37;;;;;;;4.28;2.97;;;12.80;99.90;;;;;;5008819;28;20034;-70
2021/09/19 11:11:09;;;;;;;2.92;2.70;;;12.80;99.90;;;;;;5009086;28;20057;-70
2021/09/19 11:13:41;;;;;;;3.78;2.63;;;12.70;99.90;;;;;;5007850;28;20460;-64
2021/09/19 11:16:18;;;;;;;3.40;2.35;;;12.50;99.90;;;;;;5009137;28;20077;-69
2021/09/19 11:18:49;;;;;;;2.70;2.50;;;12.40;99.90;;;;;;5008948;28;20079;-68
2021/09/19 11:21:19;;;;;;;3.15;2.75;;;12.30;99.90;;;;;;5008938;28;20417;-63
2021/09/19 11:24:04;;;;;;;5.10;3.13;;;12.50;99.90;;;;;;5006965;28;20084;-67
2021/09/19 11:26:42;;;;;;;4.55;3.80;;;12.60;99.90;;;;;;5008848;28;20046;-69
2021/09/19 11:29:13;;;;;;;2.45;2.25;;;12.50;99.90;;;;;;5008681;28;20132;-64
2021/09/19 11:31:42;;;;;;;2.90;2.20;;;12.40;99.90;;;;;;5006418;28;20125;-70
2021/09/19 11:34:17;;;;;;;3.30;2.58;;;12.30;99.90;;;;;;5008516;28;20045;-69
2021/09/19 11:36:50;;;;;;;2.60;2.40;;;12.30;99.90;;;;;;5008664;28;20072;-67
2021/09/19 11:39:18;;;;;;;2.53;2.03;;;12.40;99.90;;;;;;5008572;28;20066;-63
2021/09/19 11:41:46;;;;;;;8.90;2.50;;;12.60;99.90;;;;;;5007078;28;20041;-64
2021/09/19 11:44:15;;;;;;;4.60;2.30;;;12.80;99.90;;;;;;5008566;28;20376;-64
2021/09/19 11:46:46;;;;;;;3.42;2.47;;;12.70;99.90;;;;;;5008242;28;20141;-69
2021/09/19 11:49:13;;;;;;;;;;;12.60;99.90;;;;;;5008689;28;20100;-69
2021/09/19 11:51:41;;;;;;;2.90;2.65;;;12.50;99.90;;;;;;5007190;28;19921;-67
2021/09/19 11:54:12;;;;;;;5.65;3.47;;;12.50;99.90;;;;;;5008299;28;20429;-65
2021/09/19 11:56:44;;;;;;;4.10;3.55;;;12.50;99.90;;;;;;5008397;28;20061;-69
2021/09/19 11:59:13;;;;;;;4.13;3.25;;;12.60;99.90;;;;;;5008441;28;20435;-70
2021/09/19 12:01:40;;;;;;;4.30;3.63;;;12.60;99.90;;;;;;5006972;28;20042;-63
2021/09/19 12:04:10;;;;;;;2.83;2.50;;;12.70;99.90;;;;;;5007711;28;20558;-64
2021/09/19 12:06:39;;;;;;;6.30;2.83;;;12.70;99.90;;;;;;5008100;28;20070;-67
2021/09/19 12:09:16;;;;;;;5.00;2.95;;;12.80;99.90;;;;;;5007889;28;20081;-67
2021/09/19 12:11:51;;;;;;;6.28;3.92;;;12.80;99.90;;;;;;5006601;28;20089;-63
2021/09/19 12:14:27;;;;;;;3.65;3.13;;;12.90;99.90;;;;;;5007694;28;20050;-67
2021/09/19 12:17:06;;;;;;;4.10;2.90;;;12.80;99.90;;;;;;5007934;28;20125;-67
2021/09/19 12:19:35;;;;;;;3.53;3.22;;;12.70;99.90;;;;;;5006484;28;20052;-67
2021/09/19 12:22:06;;;;;;;4.30;3.58;;;12.80;99.90;;;;;;5007550;28;20137;-70
2021/09/19 12:24:36;;;;;;;6.13;4.30;;;12.80;99.90;;;;;;5007712;28;20069;-69
2021/09/19 12:27:10;;;;;;;4.65;2.70;;;12.90;99.90;;;;;;5007924;28;20431;-65
2021/09/19 12:29:38;;;;;;;5.38;3.70;;;12.90;99.90;;;;;;5006193;28;20068;-64
2021/09/19 12:32:05;;;;;;;3.03;2.72;;;12.90;99.90;;;;;;5006273;28;20064;-70
2021/09/19 12:34:32;;;;;;;4.40;3.03;;;13.00;99.90;;;;;;5007350;28;20081;-69
2021/09/19 12:36:59;;;;;;;3.22;2.75;;;13.00;99.90;;;;;;5007667;28;20080;-69
2021/09/19 12:39:31;;;;;;;6.32;2.95;;;13.10;99.90;;;;;;5007519;28;20092;-63
2021/09/19 12:42:04;;;;;;;4.25;2.58;;;13.20;99.90;;;;;;5005786;28;20038;-70
2021/09/19 12:44:36;;;;;;;2.63;2.42;;;13.10;99.90;;;;;;5007591;28;20046;-67
2021/09/19 12:47:07;;;;;;;2.40;2.20;;;13.00;99.90;;;;;;5007567;28;20046;-68
2021/09/19 12:49:44;;;;;;;4.38;2.55;;;13.00;99.90;;;;;;5006213;28;20112;-70
2021/09/19 12:52:18;;;;;;;4.15;3.35;;;13.00;99.90;;;;;;5007560;28;20041;-69
2021/09/19 12:54:53;;;;;;;4.13;2.40;;;13.00;99.90;;;;;;5007369;28;20070;-65
2021/09/19 12:57:23;;;;;;;2.65;2.05;;;13.10;99.90;;;;;;5007552;28;20049;-70
2021/09/19 12:59:51;;;;;;;5.47;3.03;;;13.10;99.90;;;;;;5004560;28;20113;-67
2021/09/19 13:02:20;;;;;;;5.28;2.72;;;13.10;99.90;;;;;;5007242;28;20046;-63